Terminal Aerodrome Forecast
Issued by NWS Wilmington, OH

Home | Current Version | Previous Version | Text Only | Print | Product List | Glossary On
Versions: 1 2 3 4 5 6 7 8 9 10 11 12 13 14 15 16 17 18 19 20 21 22
000
FTUS41 KILN 290500
TAFILN
TAF
KILN 290532Z 2906/3006 15004KT P6SM BKN120
     FM290800 16006KT P6SM VCSH BKN050
     FM291200 18007KT P6SM SCT040 BKN150
     FM291700 19012G22KT P6SM SCT040
     FM292000 20014G22KT P6SM VCTS BKN040CB
     FM300000 20009KT P6SM SCT050=

USA.gov is the U.S. government's official web portal to all federal, state and local government web resources and services.